Time;durP1;ratioP1;P1;durP2;ratioP2;P2;SDS_P1;SDS_P2;PMS_P1;PMS_P2;Temp;Humidity;BMP_temperature;BMP_pressure;BME280_temperature;BME280_humidity;BME280_pressure;Samples;Min_cycle;Max_cycle;Signal;HPM_P1;HPM_P2
2022/07/29 00:01:27;;;;;;;6.63;1.50;;;;;;;;;;5053534;28;20215;-63
2022/07/29 00:03:52;;;;;;;3.25;1.30;;;;;;;;;;5052306;28;20250;-63
2022/07/29 00:06:17;;;;;;;4.07;1.45;;;;;;;;;;5053093;28;20239;-63
2022/07/29 00:08:43;;;;;;;3.95;1.33;;;;;;;;;;5053197;28;20705;-63
2022/07/29 00:11:08;;;;;;;5.45;1.23;;;;;;;;;;5052113;28;20211;-64
2022/07/29 00:13:33;;;;;;;2.72;1.20;;;;;;;;;;5053145;28;20671;-64
2022/07/29 00:15:59;;;;;;;2.63;1.27;;;;;;;;;;5053097;28;20219;-64
2022/07/29 00:18:24;;;;;;;3.97;1.20;;;;;;;;;;5051889;28;20210;-63
2022/07/29 00:20:49;;;;;;;6.57;1.42;;;;;;;;;;5053115;28;20215;-63
2022/07/29 00:23:15;;;;;;;6.65;1.70;;;;;;;;;;5052388;28;20348;-63
2022/07/29 00:25:40;;;;;;;2.92;1.20;;;;;;;;;;5052259;28;20219;-63
2022/07/29 00:28:05;;;;;;;4.82;1.42;;;;;;;;;;5052232;28;20225;-64
2022/07/29 00:30:30;;;;;;;4.90;1.45;;;;;;;;;;5053071;28;20272;-63
2022/07/29 00:32:56;;;;;;;4.95;1.40;;;;;;;;;;5051393;28;20239;-63
2022/07/29 00:38:05;;;;;;;5.97;1.50;;;;;;;;;;5052282;28;20214;-64
2022/07/29 00:40:30;;;;;;;6.22;1.90;;;;;;;;;;5052365;28;20211;-64
2022/07/29 00:42:55;;;;;;;5.72;1.80;;;;;;;;;;5052552;28;20552;-63
2022/07/29 00:45:21;;;;;;;6.35;1.60;;;;;;;;;;5052423;28;20246;-64
2022/07/29 00:47:47;;;;;;;4.68;1.50;;;;;;;;;;5052146;28;20211;-63
2022/07/29 00:50:12;;;;;;;5.65;1.58;;;;;;;;;;5052341;28;20213;-64
2022/07/29 00:52:38;;;;;;;7.43;1.73;;;;;;;;;;5051585;28;20206;-64
2022/07/29 00:55:04;;;;;;;3.55;1.50;;;;;;;;;;5052144;28;20578;-64
2022/07/29 00:57:29;;;;;;;4.90;1.40;;;;;;;;;;5052542;28;20690;-63
2022/07/29 00:59:54;;;;;;;4.68;1.40;;;;;;;;;;5051599;28;20705;-63
2022/07/29 01:02:19;;;;;;;6.38;1.92;;;;;;;;;;5034180;28;20230;-64
2022/07/29 01:04:45;;;;;;;3.80;1.45;;;;;;;;;;5052678;28;20226;-64
2022/07/29 01:07:10;;;;;;;4.18;1.90;;;;;;;;;;5051237;28;20238;-64
2022/07/29 01:09:35;;;;;;;3.90;1.90;;;;;;;;;;5052175;28;20203;-63
2022/07/29 01:12:01;;;;;;;5.85;2.10;;;;;;;;;;5052020;28;20219;-65
2022/07/29 01:14:26;;;;;;;7.20;2.20;;;;;;;;;;5033576;28;20581;-64
2022/07/29 01:16:53;;;;;;;9.95;2.33;;;;;;;;;;5034823;28;20215;-63
2022/07/29 01:19:19;;;;;;;8.27;2.60;;;;;;;;;;5033903;28;20210;-64
2022/07/29 01:21:49;;;;;;;8.10;2.80;;;;;;;;;;5051295;28;20245;-64
2022/07/29 01:24:22;;;;;;;5.00;2.50;;;;;;;;;;5051843;28;20256;-65
2022/07/29 01:26:47;;;;;;;5.53;2.90;;;;;;;;;;5034594;28;20226;-64
2022/07/29 01:29:14;;;;;;;7.00;2.53;;;;;;;;;;5050669;28;20213;-64
2022/07/29 01:31:58;;;;;;;4.88;2.17;;;;;;;;;;5052392;28;20211;-64
2022/07/29 01:34:27;;;;;;;5.15;2.20;;;;;;;;;;5051430;28;20670;-64
2022/07/29 01:36:56;;;;;;;5.15;2.08;;;;;;;;;;5051306;28;20268;-64
2022/07/29 01:39:25;;;;;;;5.10;2.20;;;;;;;;;;5033815;28;20286;-64
2022/07/29 01:41:53;;;;;;;4.03;1.75;;;;;;;;;;5051521;28;20214;-63
2022/07/29 01:44:20;;;;;;;3.88;2.00;;;;;;;;;;5052056;28;20548;-63
2022/07/29 01:46:49;;;;;;;6.38;1.63;;;;;;;;;;5055729;28;20222;-64
2022/07/29 01:49:15;;;;;;;3.65;1.70;;;;;;;;;;5036899;28;20245;-64
2022/07/29 01:51:45;;;;;;;4.20;1.85;;;;;;;;;;5055967;28;20211;-63
2022/07/29 01:54:25;;;;;;;3.70;1.88;;;;;;;;;;5055316;28;20214;-63
2022/07/29 01:56:51;;;;;;;8.18;2.17;;;;;;;;;;5055258;28;20206;-63
2022/07/29 01:59:16;;;;;;;3.55;1.70;;;;;;;;;;5037488;28;20211;-64
2022/07/29 02:01:41;;;;;;;5.13;2.08;;;;;;;;;;5037939;28;20273;-63
2022/07/29 02:04:07;;;;;;;4.78;1.58;;;;;;;;;;5033317;28;20232;-64
2022/07/29 02:06:33;;;;;;;5.53;1.83;;;;;;;;;;5034423;28;20294;-63
2022/07/29 02:08:58;;;;;;;5.22;1.90;;;;;;;;;;5034596;28;20750;-63
2022/07/29 02:11:24;;;;;;;6.32;2.00;;;;;;;;;;5033235;28;20212;-63
2022/07/29 02:13:49;;;;;;;3.92;1.80;;;;;;;;;;5019430;28;20217;-63
2022/07/29 02:16:14;;;;;;;5.45;2.10;;;;;;;;;;5022689;28;20231;-63
2022/07/29 02:18:41;;;;;;;5.22;2.25;;;;;;;;;;5011624;28;20224;-64
2022/07/29 02:21:06;;;;;;;5.13;2.38;;;;;;;;;;5006369;28;20557;-64
2022/07/29 02:23:32;;;;;;;6.20;1.98;;;;;;;;;;5007218;28;20278;-64
2022/07/29 02:25:57;;;;;;;7.10;1.90;;;;;;;;;;5014400;28;20235;-63
2022/07/29 02:28:25;;;;;;;5.07;2.00;;;;;;;;;;5010594;28;20212;-63
2022/07/29 02:30:50;;;;;;;6.88;1.75;;;;;;;;;;5007143;28;20208;-63
2022/07/29 02:33:16;;;;;;;3.75;1.58;;;;;;;;;;5014880;28;20211;-63
2022/07/29 02:35:41;;;;;;;5.90;1.90;;;;;;;;;;5024250;28;20230;-63
2022/07/29 02:40:51;;;;;;;4.55;1.40;;;;;;;;;;5024860;28;20235;-63
2022/07/29 02:43:17;;;;;;;4.70;1.70;;;;;;;;;;5024105;28;20575;-64
2022/07/29 02:45:42;;;;;;;4.18;1.77;;;;;;;;;;5020726;28;20200;-63
2022/07/29 02:48:10;;;;;;;5.43;1.92;;;;;;;;;;5012671;28;20555;-64
2022/07/29 02:50:37;;;;;;;4.68;1.70;;;;;;;;;;5017765;28;20208;-63
2022/07/29 02:53:11;;;;;;;4.80;1.70;;;;;;;;;;5014235;28;20220;-64
2022/07/29 02:55:40;;;;;;;5.13;1.80;;;;;;;;;;5016562;28;20212;-64
2022/07/29 02:58:08;;;;;;;4.88;1.73;;;;;;;;;;5020337;28;20658;-64
2022/07/29 03:00:34;;;;;;;4.22;1.90;;;;;;;;;;5019417;28;20218;-63
2022/07/29 03:03:00;;;;;;;5.88;2.10;;;;;;;;;;5023050;28;20224;-64
2022/07/29 03:05:25;;;;;;;4.25;1.80;;;;;;;;;;5022070;28;20218;-63
2022/07/29 03:07:52;;;;;;;6.47;2.20;;;;;;;;;;5023783;28;20770;-64
2022/07/29 03:10:17;;;;;;;4.38;1.83;;;;;;;;;;5019786;28;20208;-62
2022/07/29 03:12:43;;;;;;;3.55;1.70;;;;;;;;;;5018402;28;20305;-63
2022/07/29 03:15:08;;;;;;;5.65;2.00;;;;;;;;;;5010935;28;20212;-64
2022/07/29 03:17:33;;;;;;;8.27;1.90;;;;;;;;;;4996825;28;20239;-63
2022/07/29 03:19:59;;;;;;;4.65;2.10;;;;;;;;;;5000667;28;20247;-63
2022/07/29 03:22:24;;;;;;;7.13;2.20;;;;;;;;;;5010646;28;20660;-62
2022/07/29 03:24:50;;;;;;;6.35;2.40;;;;;;;;;;5004903;28;20806;-62
2022/07/29 03:27:15;;;;;;;6.60;2.40;;;;;;;;;;5003611;28;20220;-62
2022/07/29 03:29:40;;;;;;;5.45;2.53;;;;;;;;;;5008433;28;20227;-62
2022/07/29 03:32:06;;;;;;;9.80;2.90;;;;;;;;;;5009154;28;21108;-63
2022/07/29 03:34:31;;;;;;;12.15;3.13;;;;;;;;;;4996825;28;20977;-62
2022/07/29 03:36:56;;;;;;;5.80;3.00;;;;;;;;;;5015389;28;20211;-62
2022/07/29 03:39:22;;;;;;;7.90;3.17;;;;;;;;;;5018812;28;20269;-62
2022/07/29 03:41:48;;;;;;;6.65;2.97;;;;;;;;;;5023465;28;20214;-62
2022/07/29 03:44:14;;;;;;;9.25;3.80;;;;;;;;;;5021749;28;20603;-62
2022/07/29 03:46:39;;;;;;;8.98;3.67;;;;;;;;;;5019217;28;20231;-62
2022/07/29 03:49:04;;;;;;;10.23;4.22;;;;;;;;;;5011286;28;20222;-62
2022/07/29 03:51:30;;;;;;;6.93;3.80;;;;;;;;;;5022306;28;20238;-62
2022/07/29 03:53:55;;;;;;;11.52;3.83;;;;;;;;;;5021055;28;20281;-62
2022/07/29 03:56:21;;;;;;;7.93;3.35;;;;;;;;;;5015233;28;21321;-62
2022/07/29 03:58:46;;;;;;;12.98;4.00;;;;;;;;;;5014952;28;20220;-61
2022/07/29 04:01:11;;;;;;;7.53;3.70;;;;;;;;;;5014801;28;20212;-61
2022/07/29 04:03:37;;;;;;;8.70;3.85;;;;;;;;;;5021214;28;20782;-62
2022/07/29 04:06:05;;;;;;;8.10;4.53;;;;;;;;;;5021407;28;20235;-62
2022/07/29 04:08:30;;;;;;;7.28;3.72;;;;;;;;;;5019809;28;20226;-62
2022/07/29 04:10:56;;;;;;;6.22;3.60;;;;;;;;;;5008870;28;20211;-62
2022/07/29 04:13:21;;;;;;;6.82;3.50;;;;;;;;;;5021655;28;20298;-62
2022/07/29 04:15:46;;;;;;;8.88;3.80;;;;;;;;;;5011182;28;20213;-62
2022/07/29 04:18:12;;;;;;;6.45;4.00;;;;;;;;;;4996619;28;20216;-63
2022/07/29 04:20:37;;;;;;;8.30;4.30;;;;;;;;;;5013903;28;20235;-62
2022/07/29 04:23:02;;;;;;;7.95;4.25;;;;;;;;;;4998371;28;20532;-62
2022/07/29 04:25:27;;;;;;;82.53;9.15;;;;;;;;;;5010635;28;20215;-63
2022/07/29 04:28:00;;;;;;;9.82;3.65;;;;;;;;;;5009824;28;20224;-62
2022/07/29 04:30:25;;;;;;;53.88;6.32;;;;;;;;;;5003049;28;20764;-65
2022/07/29 04:32:50;;;;;;;75.68;7.05;;;;;;;;;;5003172;28;20312;-63
2022/07/29 04:35:15;;;;;;;7.03;4.13;;;;;;;;;;5010849;28;20299;-63
2022/07/29 04:37:41;;;;;;;8.82;4.45;;;;;;;;;;5022229;28;20204;-62
2022/07/29 04:40:06;;;;;;;7.43;3.72;;;;;;;;;;5018229;28;20242;-63
2022/07/29 04:42:32;;;;;;;10.00;3.70;;;;;;;;;;4997992;28;20217;-63
2022/07/29 04:44:57;;;;;;;6.97;3.67;;;;;;;;;;4994776;28;20295;-63
2022/07/29 04:47:22;;;;;;;10.40;4.20;;;;;;;;;;4998717;28;20235;-63
2022/07/29 04:49:48;;;;;;;7.95;4.10;;;;;;;;;;5015907;28;20208;-63
2022/07/29 04:52:13;;;;;;;6.38;3.58;;;;;;;;;;5030103;28;20590;-62
2022/07/29 04:54:38;;;;;;;6.32;3.17;;;;;;;;;;5032863;28;20208;-64
2022/07/29 04:57:03;;;;;;;7.70;3.90;;;;;;;;;;5030412;28;20521;-66
2022/07/29 04:59:29;;;;;;;9.05;3.92;;;;;;;;;;5032126;28;20208;-64
2022/07/29 05:01:54;;;;;;;6.25;3.50;;;;;;;;;;5032653;28;20207;-63
2022/07/29 05:04:19;;;;;;;7.18;3.33;;;;;;;;;;5051626;28;20235;-62
2022/07/29 05:06:45;;;;;;;5.30;3.05;;;;;;;;;;5051511;28;20637;-62
2022/07/29 05:09:10;;;;;;;6.78;3.60;;;;;;;;;;5051766;28;20686;-63
2022/07/29 05:11:35;;;;;;;6.35;3.70;;;;;;;;;;5051944;28;20268;-62
2022/07/29 05:14:01;;;;;;;7.93;4.65;;;;;;;;;;5058130;28;20632;-63
2022/07/29 05:16:26;;;;;;;6.15;3.60;;;;;;;;;;5060614;28;20303;-61
2022/07/29 05:18:52;;;;;;;7.32;4.28;;;;;;;;;;5056900;28;20796;-62
2022/07/29 05:21:18;;;;;;;6.30;3.55;;;;;;;;;;5030389;28;20279;-61
2022/07/29 05:23:43;;;;;;;6.72;4.30;;;;;;;;;;5032348;28;20282;-62
2022/07/29 05:26:09;;;;;;;7.57;3.90;;;;;;;;;;5041483;28;20669;-61
2022/07/29 05:28:34;;;;;;;9.93;4.00;;;;;;;;;;5061062;28;20231;-62
2022/07/29 05:31:00;;;;;;;9.43;3.60;;;;;;;;;;5060751;28;20202;-62
2022/07/29 05:33:25;;;;;;;6.75;3.45;;;;;;;;;;5062590;28;20199;-62
2022/07/29 05:35:51;;;;;;;7.97;3.15;;;;;;;;;;5071166;28;20202;-63
2022/07/29 05:38:17;;;;;;;6.15;3.40;;;;;;;;;;5071524;28;20217;-61
2022/07/29 05:40:42;;;;;;;6.18;2.90;;;;;;;;;;5071894;28;20214;-62
2022/07/29 05:43:07;;;;;;;7.22;2.88;;;;;;;;;;5070657;28;20206;-62
2022/07/29 05:45:33;;;;;;;5.93;3.13;;;;;;;;;;5069852;28;20210;-62
2022/07/29 05:47:58;;;;;;;7.95;3.47;;;;;;;;;;5031113;28;20655;-61
2022/07/29 05:50:24;;;;;;;4.68;2.97;;;;;;;;;;5045780;28;20217;-63
2022/07/29 05:52:49;;;;;;;6.35;3.15;;;;;;;;;;5051789;28;20207;-61
2022/07/29 05:55:15;;;;;;;6.97;3.63;;;;;;;;;;5050546;28;20728;-62
2022/07/29 05:57:40;;;;;;;6.10;3.40;;;;;;;;;;5051536;28;20594;-63
2022/07/29 06:00:06;;;;;;;6.82;3.15;;;;;;;;;;5051218;28;20249;-63
2022/07/29 06:02:31;;;;;;;6.55;3.17;;;;;;;;;;5050859;28;20227;-64
2022/07/29 06:04:56;;;;;;;8.60;3.33;;;;;;;;;;5059391;28;20207;-63
2022/07/29 06:07:22;;;;;;;33.40;5.03;;;;;;;;;;5065827;28;20269;-63
2022/07/29 06:09:47;;;;;;;11.10;3.22;;;;;;;;;;5070905;28;20210;-63
2022/07/29 06:12:12;;;;;;;6.15;3.33;;;;;;;;;;5070866;28;20203;-63
2022/07/29 06:14:38;;;;;;;6.10;3.50;;;;;;;;;;5068125;28;20199;-66
2022/07/29 06:17:03;;;;;;;5.88;3.15;;;;;;;;;;5050365;28;20265;-63
2022/07/29 06:19:29;;;;;;;6.18;3.30;;;;;;;;;;5051436;28;20215;-64
2022/07/29 06:21:54;;;;;;;6.97;3.05;;;;;;;;;;5051715;28;20214;-65
2022/07/29 06:24:19;;;;;;;7.43;3.55;;;;;;;;;;5050584;28;20222;-64
2022/07/29 06:26:45;;;;;;;7.07;3.50;;;;;;;;;;5051241;28;20223;-66
2022/07/29 06:29:10;;;;;;;8.13;3.55;;;;;;;;;;5050934;28;20219;-64
2022/07/29 06:31:35;;;;;;;7.28;3.15;;;;;;;;;;5051960;28;20534;-63
2022/07/29 06:34:01;;;;;;;4.88;2.90;;;;;;;;;;5054677;28;20689;-65
2022/07/29 06:36:26;;;;;;;7.75;3.22;;;;;;;;;;5054888;28;20276;-64
2022/07/29 06:38:51;;;;;;;5.70;2.85;;;;;;;;;;5054171;28;20211;-64
2022/07/29 06:41:17;;;;;;;6.15;2.95;;;;;;;;;;5054296;28;20215;-65
2022/07/29 06:43:43;;;;;;;7.45;3.35;;;;;;;;;;5054762;28;20735;-65
2022/07/29 06:46:09;;;;;;;6.38;3.22;;;;;;;;;;5053871;28;20223;-65
2022/07/29 06:48:35;;;;;;;6.63;3.50;;;;;;;;;;5037157;28;20214;-65
2022/07/29 06:51:01;;;;;;;8.02;3.00;;;;;;;;;;5054292;28;20211;-65
2022/07/29 06:53:26;;;;;;;6.30;3.50;;;;;;;;;;5053860;28;20298;-69
2022/07/29 06:55:52;;;;;;;8.77;3.58;;;;;;;;;;5054881;28;20211;-67
2022/07/29 06:58:20;;;;;;;7.30;3.30;;;;;;;;;;5053150;28;20221;-66
2022/07/29 07:00:45;;;;;;;7.05;3.15;;;;;;;;;;5054469;28;20199;-68
2022/07/29 07:03:11;;;;;;;6.00;3.30;;;;;;;;;;5053939;28;20243;-68
2022/07/29 07:05:36;;;;;;;7.22;3.30;;;;;;;;;;5053851;28;20210;-68
2022/07/29 07:08:01;;;;;;;7.70;3.22;;;;;;;;;;5053971;28;20712;-67
2022/07/29 07:10:26;;;;;;;5.47;3.22;;;;;;;;;;5054726;28;20214;-68
2022/07/29 07:12:52;;;;;;;6.03;3.40;;;;;;;;;;5053928;28;20278;-70
2022/07/29 07:15:21;;;;;;;9.00;3.42;;;;;;;;;;5053916;28;20725;-68
2022/07/29 07:17:47;;;;;;;6.35;3.20;;;;;;;;;;5054316;28;20211;-73
2022/07/29 07:20:12;;;;;;;6.07;3.03;;;;;;;;;;5052967;28;20264;-66
2022/07/29 07:22:37;;;;;;;7.60;3.63;;;;;;;;;;5054292;28;20239;-66
2022/07/29 07:25:03;;;;;;;5.22;2.90;;;;;;;;;;5049859;28;20217;-66
2022/07/29 07:27:28;;;;;;;6.50;3.38;;;;;;;;;;5052373;28;20322;-66
2022/07/29 07:29:53;;;;;;;6.65;3.08;;;;;;;;;;5050722;28;20273;-66
2022/07/29 07:32:19;;;;;;;5.97;3.10;;;;;;;;;;5041404;28;20273;-66
2022/07/29 07:34:44;;;;;;;7.10;3.60;;;;;;;;;;5032183;28;20212;-66
2022/07/29 07:37:09;;;;;;;5.22;3.60;;;;;;;;;;5037372;28;20601;-67
2022/07/29 07:39:35;;;;;;;11.50;4.85;;;;;;;;;;5052552;28;20639;-67
2022/07/29 07:42:01;;;;;;;9.55;4.10;;;;;;;;;;5051508;28;20646;-67
2022/07/29 07:44:26;;;;;;;10.50;4.50;;;;;;;;;;5052637;28;20215;-66
2022/07/29 07:46:52;;;;;;;9.48;4.10;;;;;;;;;;5052508;28;20751;-67
2022/07/29 07:49:17;;;;;;;8.30;4.15;;;;;;;;;;5051201;28;20305;-67
2022/07/29 07:51:43;;;;;;;7.90;4.13;;;;;;;;;;5052575;28;20552;-67
2022/07/29 07:54:08;;;;;;;6.13;3.17;;;;;;;;;;5051671;28;20221;-67
2022/07/29 07:56:33;;;;;;;8.27;3.75;;;;;;;;;;5051759;28;20210;-68
2022/07/29 07:58:58;;;;;;;6.93;3.25;;;;;;;;;;5051772;28;20221;-66
2022/07/29 08:01:24;;;;;;;7.30;3.20;;;;;;;;;;5051789;28;20598;-66
2022/07/29 08:03:49;;;;;;;8.10;3.33;;;;;;;;;;5048406;28;20281;-66
2022/07/29 08:06:14;;;;;;;9.07;3.50;;;;;;;;;;5051880;28;20694;-66
2022/07/29 08:08:41;;;;;;;5.68;3.03;;;;;;;;;;5049584;28;21050;-66
2022/07/29 08:11:06;;;;;;;5.88;3.10;;;;;;;;;;5050676;28;20215;-66
2022/07/29 08:13:31;;;;;;;6.28;2.85;;;;;;;;;;5052308;28;20211;-66
2022/07/29 08:15:57;;;;;;;6.20;2.90;;;;;;;;;;5049186;28;20208;-66
2022/07/29 08:18:23;;;;;;;7.22;3.30;;;;;;;;;;5051709;28;20240;-66
2022/07/29 08:20:49;;;;;;;6.80;3.45;;;;;;;;;;5052193;28;20203;-66
2022/07/29 08:23:14;;;;;;;9.80;3.50;;;;;;;;;;5050651;28;20207;-65
2022/07/29 08:25:39;;;;;;;5.07;3.05;;;;;;;;;;5052096;28;20683;-65
2022/07/29 08:28:05;;;;;;;8.35;3.10;;;;;;;;;;5052835;28;20757;-66
2022/07/29 08:30:30;;;;;;;14.68;4.18;;;;;;;;;;5050958;28;20206;-65
2022/07/29 08:32:56;;;;;;;5.63;3.10;;;;;;;;;;5051829;28;20629;-65
2022/07/29 08:35:22;;;;;;;6.80;3.30;;;;;;;;;;5050997;28;20215;-65
2022/07/29 08:37:47;;;;;;;9.15;3.70;;;;;;;;;;5050734;28;20207;-66
2022/07/29 08:40:13;;;;;;;9.05;3.78;;;;;;;;;;5051046;28;20210;-65
2022/07/29 08:42:39;;;;;;;9.50;4.00;;;;;;;;;;5045591;28;20218;-65
2022/07/29 08:45:04;;;;;;;9.10;3.65;;;;;;;;;;5030570;28;20216;-65
2022/07/29 08:47:30;;;;;;;7.57;3.97;;;;;;;;;;5033573;28;20227;-63
2022/07/29 08:49:55;;;;;;;8.93;3.50;;;;;;;;;;5050811;28;20353;-63
2022/07/29 08:52:20;;;;;;;7.47;3.80;;;;;;;;;;5029739;28;20573;-64
2022/07/29 08:54:46;;;;;;;28.98;5.05;;;;;;;;;;5041475;28;20701;-64
2022/07/29 08:57:12;;;;;;;9.90;3.92;;;;;;;;;;5022775;28;20294;-72
2022/07/29 08:59:38;;;;;;;6.25;3.58;;;;;;;;;;5013052;28;20667;-66
2022/07/29 09:02:03;;;;;;;6.95;3.65;;;;;;;;;;5029476;28;20210;-68
2022/07/29 09:04:30;;;;;;;7.45;3.60;;;;;;;;;;5051241;28;20223;-65
2022/07/29 09:06:55;;;;;;;7.93;3.33;;;;;;;;;;5050575;28;20703;-66
2022/07/29 09:09:20;;;;;;;6.82;3.15;;;;;;;;;;5050315;28;20215;-67
2022/07/29 09:11:46;;;;;;;9.85;3.50;;;;;;;;;;5050726;28;20211;-66
2022/07/29 09:14:12;;;;;;;4.80;3.42;;;;;;;;;;5050740;28;20218;-67
2022/07/29 09:16:46;;;;;;;6.30;3.30;;;;;;;;;;5031273;28;20663;-66
2022/07/29 09:19:22;;;;;;;5.38;3.38;;;;;;;;;;5030037;28;20219;-65
2022/07/29 09:21:57;;;;;;;6.65;3.25;;;;;;;;;;5031448;28;20345;-66
2022/07/29 09:24:22;;;;;;;4.78;2.90;;;;;;;;;;5030307;28;20237;-66
2022/07/29 09:26:48;;;;;;;9.00;3.20;;;;;;;;;;5030353;28;20686;-66
2022/07/29 09:29:14;;;;;;;38.28;5.63;;;;;;;;;;5039103;28;20207;-66
2022/07/29 09:31:40;;;;;;;12.93;4.45;;;;;;;;;;5051017;28;20235;-68
2022/07/29 09:34:05;;;;;;;34.38;5.00;;;;;;;;;;5032253;28;20214;-68
2022/07/29 09:36:30;;;;;;;17.20;4.00;;;;;;;;;;5050868;28;20218;-67
2022/07/29 09:38:57;;;;;;;7.25;3.55;;;;;;;;;;5032924;28;20222;-67
2022/07/29 09:41:22;;;;;;;9.20;3.45;;;;;;;;;;5049458;28;20721;-67
2022/07/29 09:44:01;;;;;;;8.48;3.55;;;;;;;;;;5033225;28;20234;-67
2022/07/29 09:46:26;;;;;;;8.93;3.72;;;;;;;;;;5050579;28;20571;-67
2022/07/29 09:49:05;;;;;;;8.15;3.78;;;;;;;;;;5050164;28;20290;-69
2022/07/29 09:51:30;;;;;;;7.70;4.10;;;;;;;;;;5029912;28;20212;-68
2022/07/29 09:53:56;;;;;;;8.05;3.88;;;;;;;;;;5036295;28;20210;-68
2022/07/29 09:56:37;;;;;;;6.20;3.72;;;;;;;;;;5044469;28;20310;-68
2022/07/29 09:59:06;;;;;;;31.15;5.18;;;;;;;;;;5037825;28;20259;-67
2022/07/29 10:01:31;;;;;;;7.60;3.92;;;;;;;;;;5020309;28;20214;-67
2022/07/29 10:03:57;;;;;;;9.10;4.53;;;;;;;;;;5006223;28;20697;-68
2022/07/29 10:06:22;;;;;;;9.35;4.05;;;;;;;;;;5005300;28;20214;-68
2022/07/29 10:08:49;;;;;;;7.18;3.70;;;;;;;;;;5058541;28;20602;-67
2022/07/29 10:11:15;;;;;;;7.60;3.45;;;;;;;;;;5054874;28;20211;-67
2022/07/29 10:13:40;;;;;;;9.80;4.03;;;;;;;;;;5061377;28;20239;-67
2022/07/29 10:16:06;;;;;;;11.10;3.70;;;;;;;;;;5053262;28;20211;-66
2022/07/29 10:18:31;;;;;;;7.13;3.67;;;;;;;;;;5052826;28;20210;-65
2022/07/29 10:20:56;;;;;;;7.45;3.83;;;;;;;;;;5059660;28;20242;-66
2022/07/29 10:23:21;;;;;;;9.27;4.45;;;;;;;;;;5041487;28;20571;-67
2022/07/29 10:25:47;;;;;;;8.18;4.13;;;;;;;;;;5007091;28;20202;-66
2022/07/29 10:28:12;;;;;;;9.63;4.68;;;;;;;;;;5060468;28;20218;-67
2022/07/29 10:30:39;;;;;;;16.27;5.13;;;;;;;;;;5021992;28;20234;-66
2022/07/29 10:33:14;;;;;;;8.10;4.20;;;;;;;;;;5042553;28;20214;-65
2022/07/29 10:35:58;;;;;;;6.75;3.70;;;;;;;;;;5033484;28;20245;-66
2022/07/29 10:38:24;;;;;;;11.27;4.57;;;;;;;;;;5033210;28;20635;-67
2022/07/29 10:43:35;;;;;;;6.95;4.25;;;;;;;;;;5066218;28;20734;-66
2022/07/29 10:46:01;;;;;;;9.18;4.20;;;;;;;;;;5046387;28;20218;-67
2022/07/29 10:48:26;;;;;;;8.73;4.57;;;;;;;;;;5014295;28;20207;-66
2022/07/29 10:50:55;;;;;;;7.10;4.22;;;;;;;;;;5065062;28;20214;-67
2022/07/29 10:53:21;;;;;;;6.90;4.00;;;;;;;;;;5064840;28;20753;-67
2022/07/29 10:55:48;;;;;;;8.07;4.10;;;;;;;;;;5064689;28;20355;-67
2022/07/29 10:58:20;;;;;;;11.88;4.80;;;;;;;;;;5011402;28;20231;-67
2022/07/29 11:00:47;;;;;;;8.60;4.75;;;;;;;;;;5017067;28;20998;-67
2022/07/29 11:03:31;;;;;;;13.98;4.93;;;;;;;;;;5049993;28;20235;-65
2022/07/29 11:05:56;;;;;;;12.18;4.65;;;;;;;;;;5071276;28;20218;-65
2022/07/29 11:08:23;;;;;;;8.88;3.92;;;;;;;;;;5067739;28;20210;-66
2022/07/29 11:10:49;;;;;;;7.72;3.45;;;;;;;;;;5070180;28;20226;-65
2022/07/29 11:13:33;;;;;;;9.20;3.60;;;;;;;;;;5070033;28;20214;-66
2022/07/29 11:15:58;;;;;;;9.10;3.20;;;;;;;;;;5055445;28;20819;-65
2022/07/29 11:18:23;;;;;;;9.18;3.45;;;;;;;;;;5061201;28;20214;-65
2022/07/29 11:20:49;;;;;;;6.90;3.30;;;;;;;;;;5064504;28;20210;-65
2022/07/29 11:23:24;;;;;;;10.00;3.28;;;;;;;;;;5067525;28;20806;-65
2022/07/29 11:26:07;;;;;;;12.82;2.80;;;;;;;;;;5063088;28;20302;-65
2022/07/29 11:28:33;;;;;;;7.03;2.92;;;;;;;;;;5069598;28;20218;-64
2022/07/29 11:30:58;;;;;;;8.55;2.80;;;;;;;;;;5044237;28;20681;-64
2022/07/29 11:33:30;;;;;;;10.05;3.00;;;;;;;;;;5059930;28;20222;-65
2022/07/29 11:36:07;;;;;;;11.40;2.58;;;;;;;;;;5029784;28;20214;-65
2022/07/29 11:38:33;;;;;;;7.20;2.40;;;;;;;;;;5071365;28;20293;-65
2022/07/29 11:41:17;;;;;;;8.95;2.58;;;;;;;;;;5053444;28;20628;-65
2022/07/29 11:43:52;;;;;;;6.20;2.67;;;;;;;;;;5071149;28;20210;-65
2022/07/29 11:46:37;;;;;;;6.53;2.53;;;;;;;;;;5070702;28;20257;-65
2022/07/29 11:49:03;;;;;;;4.85;2.20;;;;;;;;;;5070976;28;20260;-65
2022/07/29 11:51:28;;;;;;;8.32;2.92;;;;;;;;;;5071479;28;20214;-66
2022/07/29 11:53:53;;;;;;;5.32;2.00;;;;;;;;;;5052938;28;20633;-65
2022/07/29 11:56:20;;;;;;;6.57;2.42;;;;;;;;;;5046750;28;20226;-65
2022/07/29 11:58:46;;;;;;;9.10;2.55;;;;;;;;;;5053286;28;20271;-66
2022/07/29 12:01:15;;;;;;;7.63;2.00;;;;;;;;;;5058967;28;20215;-65
2022/07/29 12:03:40;;;;;;;5.18;2.15;;;;;;;;;;5030613;28;20278;-66
2022/07/29 12:06:13;;;;;;;4.70;2.00;;;;;;;;;;5031001;28;20199;-66
2022/07/29 12:08:39;;;;;;;6.35;2.05;;;;;;;;;;5029965;28;20223;-65
2022/07/29 12:11:04;;;;;;;6.05;2.30;;;;;;;;;;5032073;28;20218;-65
2022/07/29 12:13:30;;;;;;;4.80;1.73;;;;;;;;;;5035114;28;20219;-65
2022/07/29 12:15:56;;;;;;;5.97;2.40;;;;;;;;;;5020537;28;20582;-65
2022/07/29 12:18:22;;;;;;;5.50;1.70;;;;;;;;;;5016948;28;20215;-65
2022/07/29 12:20:47;;;;;;;5.03;1.83;;;;;;;;;;5026455;28;20208;-66
2022/07/29 12:23:13;;;;;;;5.40;1.90;;;;;;;;;;5029909;28;20964;-64
2022/07/29 12:25:39;;;;;;;5.40;2.10;;;;;;;;;;5035554;28;20302;-65
2022/07/29 12:28:05;;;;;;;4.32;1.90;;;;;;;;;;5033665;28;20219;-65
2022/07/29 12:30:44;;;;;;;4.93;1.75;;;;;;;;;;5029072;28;20212;-66
2022/07/29 12:33:10;;;;;;;4.15;1.90;;;;;;;;;;5025791;28;20774;-66
2022/07/29 12:35:35;;;;;;;7.45;1.90;;;;;;;;;;5028540;28;20295;-66
2022/07/29 12:38:00;;;;;;;3.70;2.03;;;;;;;;;;5020613;28;20217;-65
2022/07/29 12:40:26;;;;;;;5.25;1.90;;;;;;;;;;5007204;28;20725;-65
2022/07/29 12:43:09;;;;;;;7.10;1.70;;;;;;;;;;5019181;28;20310;-65
2022/07/29 12:45:34;;;;;;;29.90;3.97;;;;;;;;;;5032491;28;20215;-65
2022/07/29 12:48:00;;;;;;;5.78;1.60;;;;;;;;;;5037601;28;20230;-65
2022/07/29 12:50:25;;;;;;;4.30;1.60;;;;;;;;;;5035012;28;20227;-65
2022/07/29 12:52:51;;;;;;;4.25;1.70;;;;;;;;;;5034282;28;20702;-65
2022/07/29 12:55:36;;;;;;;3.65;1.40;;;;;;;;;;5038959;28;20210;-65
2022/07/29 12:58:01;;;;;;;4.43;1.50;;;;;;;;;;5042545;28;20302;-65
2022/07/29 13:00:27;;;;;;;4.47;1.58;;;;;;;;;;5047555;28;20349;-65
2022/07/29 13:02:56;;;;;;;19.70;2.15;;;;;;;;;;5029105;28;20280;-65
2022/07/29 13:05:21;;;;;;;5.53;1.80;;;;;;;;;;5027305;28;20223;-64
2022/07/29 13:07:46;;;;;;;6.72;2.05;;;;;;;;;;5018760;28;20273;-65
2022/07/29 13:10:14;;;;;;;5.80;1.80;;;;;;;;;;5017541;28;20571;-65
2022/07/29 13:12:39;;;;;;;6.00;1.77;;;;;;;;;;5034398;28;20262;-65
2022/07/29 13:15:13;;;;;;;4.18;1.33;;;;;;;;;;5030529;28;20243;-65
2022/07/29 13:17:40;;;;;;;4.97;1.52;;;;;;;;;;5044730;28;20723;-64
2022/07/29 13:20:06;;;;;;;4.00;1.60;;;;;;;;;;5041912;28;20219;-65
2022/07/29 13:22:31;;;;;;;3.67;1.35;;;;;;;;;;5026614;28;20230;-65
2022/07/29 13:24:57;;;;;;;4.38;1.27;;;;;;;;;;5034854;28;20206;-64
2022/07/29 13:27:23;;;;;;;3.95;1.27;;;;;;;;;;5038425;28;20459;-64
2022/07/29 13:29:50;;;;;;;9.35;1.52;;;;;;;;;;5017343;28;20223;-64
2022/07/29 13:32:16;;;;;;;51.10;5.10;;;;;;;;;;5017215;28;20232;-64
2022/07/29 13:34:41;;;;;;;33.55;2.60;;;;;;;;;;5023545;28;20762;-64
2022/07/29 13:37:07;;;;;;;3.55;1.50;;;;;;;;;;5007777;28;20698;-65
2022/07/29 13:39:32;;;;;;;15.52;2.22;;;;;;;;;;5025700;28;20227;-64
2022/07/29 13:41:57;;;;;;;15.68;1.85;;;;;;;;;;5047799;28;20214;-64
2022/07/29 13:44:23;;;;;;;7.35;1.30;;;;;;;;;;5048399;28;20300;-65
2022/07/29 13:46:48;;;;;;;10.45;1.98;;;;;;;;;;5033059;28;20306;-65
2022/07/29 13:49:13;;;;;;;3.42;1.50;;;;;;;;;;5028178;28;20618;-65
2022/07/29 13:51:39;;;;;;;20.20;2.28;;;;;;;;;;5040060;28;20978;-65
2022/07/29 13:54:04;;;;;;;3.95;1.20;;;;;;;;;;5034766;28;20199;-62
2022/07/29 13:56:30;;;;;;;5.53;1.63;;;;;;;;;;5044307;28;20215;-65
2022/07/29 13:58:55;;;;;;;19.65;2.25;;;;;;;;;;5048825;28;20203;-65
2022/07/29 14:01:20;;;;;;;4.22;1.77;;;;;;;;;;5036911;28;21030;-61
2022/07/29 14:03:46;;;;;;;4.70;1.50;;;;;;;;;;5028732;28;20626;-62
2022/07/29 14:06:11;;;;;;;5.35;1.90;;;;;;;;;;5012623;28;20212;-63
2022/07/29 14:08:36;;;;;;;4.63;1.60;;;;;;;;;;5029252;28;20334;-65
2022/07/29 14:11:02;;;;;;;7.75;1.50;;;;;;;;;;5026471;28;20613;-65
2022/07/29 14:13:27;;;;;;;5.47;1.90;;;;;;;;;;5000468;28;20224;-65
2022/07/29 14:15:52;;;;;;;9.00;1.80;;;;;;;;;;5020740;28;20619;-65
2022/07/29 14:18:18;;;;;;;4.95;1.58;;;;;;;;;;5021499;28;20310;-65
2022/07/29 14:20:43;;;;;;;7.07;1.55;;;;;;;;;;5028699;28;20210;-65
2022/07/29 14:23:08;;;;;;;4.18;1.67;;;;;;;;;;5028988;28;20307;-65
2022/07/29 14:25:34;;;;;;;8.18;1.65;;;;;;;;;;5029134;28;20258;-65
2022/07/29 14:27:59;;;;;;;5.70;1.40;;;;;;;;;;5028836;28;20311;-64
2022/07/29 14:30:24;;;;;;;3.00;1.50;;;;;;;;;;5027349;28;20208;-65
2022/07/29 14:32:49;;;;;;;3.85;1.38;;;;;;;;;;5047624;28;20251;-64
2022/07/29 14:35:15;;;;;;;4.65;1.25;;;;;;;;;;5041324;28;20215;-62
2022/07/29 14:37:41;;;;;;;4.38;1.30;;;;;;;;;;5023596;28;20219;-62
2022/07/29 14:40:06;;;;;;;5.45;1.55;;;;;;;;;;5028974;28;20336;-65
2022/07/29 14:42:32;;;;;;;5.13;1.60;;;;;;;;;;5026620;28;20216;-64
2022/07/29 14:44:57;;;;;;;6.38;1.50;;;;;;;;;;5028273;28;20216;-65